LKKV

Karlovy Vary International Airport

Karlovy Vary, Czech Republic
TAF LKKV 202300Z 2100/2206 VRB02KT CAVOK BECMG 2107/2109 33006KT
Issued Valid From Valid To
Apr-20 @ 23:00 UTC
(5 hours ago)
Apr-21 @ 00:00 UTC
(4 hours ago)
Apr-22 @ 06:00 UTC
(-1 days ago)
Apr-21 @ 00:00 to Apr-21 @ 07:00
TAF LKKV 202300Z 2100/2206 VRB02KT CAVOK
Wind Visibility Clouds Conditions
Variable at 2 knots 10,000+ meters
  • No significant clouds
Becoming Apr-21 @ 07:00 to Apr-22 @ 06:00
BECMG 2107/2109 33006KT
Wind Visibility Clouds Conditions
330° at 6 knots 10,000+ meters
  • No significant clouds
TAF LKKV 202300Z 2100/2206 VRB02KT CAVOK BECMG 2107/2109 33006KT
Issued Apr-20 @ 23:00 UTC
(5 hours ago)
Valid From Apr-21 @ 00:00 UTC
(4 hours ago)
Valid To Apr-22 @ 06:00 UTC
(-1 days ago)
Apr-21 @ 00:00 - Apr-21 @ 07:00
Wind Visibility
Variable at 2 knots 10,000+ meters
Clouds
  • No significant clouds
Conditions
Becoming Apr-21 @ 07:00 - Apr-22 @ 06:00
Wind Visibility
330° at 6 knots 10,000+ meters
Clouds
  • No significant clouds
Conditions